Pontiac Muni Information

FAA: PNT - ICAO: KPNT

Pontiac Muni (Airport) Location

State Illinois
County Livingston
City Pontiac
Pontiac Muni (Airport) is 3 miles north of Pontiac, IL.
Latitude 40-55-28.0000N
Longitude 088-37-26.2000W
Elevation 666ft

Pontiac Muni METARs

METAR KPNT 172015Z AUTO 05008KT 10SM CLR 24/03 A3001 RMK AO2 T02410026
Altimeter 30.01"
Temperature 24.1°C (75.4°F)
Wind 50° at 8KT
Clouds Skies are clear.
Visibility 10.0mi
Time observed: 2022-05-17T20:15:00Z

Pontiac Muni (Airport) Details

Status Operational
Activation December 1992
Ownership Public
Usage Public
Chart CHICAGO
ATC on-site No
Beacon schedule sunset-sunrise
Beacon color clear green

Pontiac Muni (Airport) Contacts

Owner CITY OF PONTIAC
Owner address CITY HALL - 115 W. HOWARD, PONTIAC, IL 61764
Owner phone 815-844-3396
Manager DELMAR D. COMPTON JR.
Manager address 14229 LANDOLT ROAD, POCAHONTAS, IL 62275
Manager phone (618) 567-1237

Pontiac Muni Radio Frequencies

Pontiac Muni (Airport) Radio Frequencies

UNICOM 123.075
Common traffic advisory frequency (CTAF) 123.075